createdAt,value
2017-08-25T00:00:29.085Z,76.60
2017-08-25T00:02:56.674Z,76.10
2017-08-25T00:05:24.228Z,76.10
2017-08-25T00:07:51.777Z,76.10
2017-08-25T00:10:19.357Z,76.00
2017-08-25T00:12:46.885Z,75.90
2017-08-25T00:15:14.436Z,76.20
2017-08-25T00:17:42.007Z,76.40
2017-08-25T00:20:09.552Z,76.20
2017-08-25T00:22:37.099Z,76.70
2017-08-25T00:25:04.671Z,76.60
2017-08-25T00:27:32.967Z,77.30
2017-08-25T00:30:00.515Z,77.30
2017-08-25T00:32:28.089Z,77.50
2017-08-25T00:34:55.635Z,77.40
2017-08-25T00:37:23.205Z,77.60
2017-08-25T00:39:50.770Z,78.50
2017-08-25T00:42:18.334Z,78.40
2017-08-25T00:44:45.875Z,78.40
2017-08-25T00:47:13.440Z,78.70
2017-08-25T00:49:40.969Z,78.70
2017-08-25T00:52:08.515Z,79.10
2017-08-25T00:54:36.101Z,79.10
2017-08-25T00:57:03.652Z,79.30
2017-08-25T00:59:31.193Z,78.90
2017-08-25T01:01:58.760Z,79.50
2017-08-25T01:04:26.312Z,79.40
2017-08-25T01:06:53.842Z,79.40
2017-08-25T01:09:21.397Z,79.70
2017-08-25T01:11:48.928Z,79.60
2017-08-25T01:14:16.475Z,79.70
2017-08-25T01:16:44.066Z,79.70
2017-08-25T01:19:11.611Z,80.00
2017-08-25T01:21:39.142Z,79.90
2017-08-25T01:24:06.731Z,80.00
2017-08-25T01:26:34.291Z,79.70
2017-08-25T01:29:01.825Z,79.40
2017-08-25T01:31:29.421Z,79.40
2017-08-25T01:33:56.981Z,79.50
2017-08-25T01:36:24.528Z,79.30
2017-08-25T01:38:52.109Z,79.20
2017-08-25T01:41:19.636Z,79.30
2017-08-25T01:43:47.192Z,79.40
2017-08-25T01:46:14.809Z,79.40
2017-08-25T01:48:42.358Z,79.40
2017-08-25T01:51:09.923Z,79.60
2017-08-25T01:53:37.492Z,80.10
2017-08-25T01:56:05.034Z,79.70
2017-08-25T01:58:32.629Z,80.20
2017-08-25T02:01:00.185Z,79.70
2017-08-25T02:03:27.747Z,80.20
2017-08-25T02:05:55.378Z,80.30
2017-08-25T02:08:23.100Z,80.10
2017-08-25T02:10:50.658Z,80.20
2017-08-25T02:13:18.231Z,80.30
2017-08-25T02:15:45.827Z,80.50
2017-08-25T02:18:13.403Z,80.60
2017-08-25T02:20:40.984Z,80.70
2017-08-25T02:23:08.596Z,80.70
2017-08-25T02:25:36.156Z,81.00
2017-08-25T02:28:03.771Z,81.20
2017-08-25T02:30:31.735Z,81.40
2017-08-25T02:32:59.315Z,81.30
2017-08-25T02:35:26.899Z,81.40
2017-08-25T02:37:54.507Z,81.20
2017-08-25T02:45:20.445Z,82.20
2017-08-25T02:47:48.031Z,81.90
2017-08-25T02:50:15.599Z,81.70
2017-08-25T02:52:43.207Z,81.60
2017-08-25T02:55:10.796Z,81.70
2017-08-25T02:57:38.353Z,81.60
2017-08-25T03:00:05.957Z,81.40
2017-08-25T03:02:33.538Z,81.40
2017-08-25T03:05:01.115Z,82.00
2017-08-25T03:07:28.701Z,82.20
2017-08-25T03:09:56.277Z,81.80
2017-08-25T03:12:23.877Z,81.50
2017-08-25T03:14:51.496Z,81.80
2017-08-25T03:17:19.079Z,82.00
2017-08-25T03:19:46.661Z,82.20
2017-08-25T03:22:14.279Z,82.70
2017-08-25T03:24:41.873Z,83.00
2017-08-25T03:27:09.471Z,82.90
2017-08-25T03:29:37.089Z,82.90
2017-08-25T03:32:04.640Z,83.20
2017-08-25T03:34:32.224Z,82.80
2017-08-25T03:36:59.834Z,82.80
2017-08-25T03:39:27.419Z,83.00
2017-08-25T03:41:54.989Z,83.30
2017-08-25T03:44:22.592Z,83.30
2017-08-25T03:46:50.199Z,83.60
2017-08-25T03:49:17.828Z,83.90
2017-08-25T03:51:45.451Z,83.70
2017-08-25T03:54:13.086Z,84.00
2017-08-25T03:56:40.670Z,83.70
2017-08-25T03:59:08.269Z,83.40
2017-08-25T04:01:35.845Z,84.00
2017-08-25T04:04:03.419Z,84.20
2017-08-25T04:06:31.008Z,84.10
2017-08-25T04:08:58.628Z,84.10
2017-08-25T04:11:26.213Z,84.30
2017-08-25T04:13:53.827Z,84.60
2017-08-25T04:16:21.405Z,84.70
2017-08-25T04:18:48.974Z,84.50
2017-08-25T04:21:16.582Z,84.10
2017-08-25T04:23:44.169Z,83.90
2017-08-25T04:26:11.724Z,83.90
2017-08-25T04:28:39.315Z,83.90
2017-08-25T04:31:06.899Z,84.40
2017-08-25T04:33:34.572Z,84.40
2017-08-25T04:36:02.168Z,84.20
2017-08-25T04:38:29.743Z,84.10
2017-08-25T04:40:57.333Z,84.20
2017-08-25T04:43:25.719Z,84.20
2017-08-25T04:45:53.286Z,84.30
2017-08-25T04:48:20.857Z,84.50
2017-08-25T04:50:48.463Z,84.10
2017-08-25T04:53:16.044Z,84.20
2017-08-25T04:55:43.633Z,83.90
2017-08-25T04:58:11.263Z,84.00
2017-08-25T05:00:38.834Z,83.80
2017-08-25T05:03:06.417Z,83.90
2017-08-25T05:05:34.008Z,83.80
2017-08-25T05:08:01.586Z,83.80
2017-08-25T05:10:29.160Z,83.50
2017-08-25T05:12:56.759Z,83.50
2017-08-25T05:15:24.349Z,83.20
2017-08-25T05:17:51.931Z,82.90
2017-08-25T05:20:19.549Z,82.80
2017-08-25T05:22:47.155Z,83.10
2017-08-25T05:25:14.722Z,82.90
2017-08-25T05:27:42.312Z,83.10
2017-08-25T05:30:09.893Z,83.20
2017-08-25T05:32:37.511Z,83.30
2017-08-25T05:35:05.108Z,83.30
2017-08-25T05:37:32.698Z,83.40
2017-08-25T05:40:00.277Z,83.30
2017-08-25T05:42:27.902Z,83.10
2017-08-25T05:44:55.493Z,83.10
2017-08-25T05:47:23.055Z,83.10
2017-08-25T05:49:50.684Z,83.00
2017-08-25T05:52:18.276Z,82.90
2017-08-25T05:54:45.852Z,82.90
2017-08-25T05:57:13.455Z,82.90
2017-08-25T05:59:41.025Z,82.70
2017-08-25T06:02:08.611Z,82.70
2017-08-25T06:04:36.247Z,82.20
2017-08-25T06:07:03.824Z,82.20
2017-08-25T06:09:31.409Z,82.10
2017-08-25T06:11:59.023Z,82.20
2017-08-25T06:14:26.614Z,81.00
2017-08-25T06:16:54.207Z,81.10
2017-08-25T06:19:21.823Z,81.40
2017-08-25T06:21:49.410Z,81.50
2017-08-25T06:24:17.000Z,81.60
2017-08-25T06:26:44.603Z,81.70
2017-08-25T06:29:12.201Z,81.70
2017-08-25T06:31:39.801Z,81.50
2017-08-25T06:34:07.409Z,81.20
2017-08-25T06:36:34.991Z,80.90
2017-08-25T06:39:02.561Z,81.00
2017-08-25T06:41:30.195Z,80.40
2017-08-25T06:43:57.787Z,79.40
2017-08-25T06:46:25.375Z,78.70
2017-08-25T06:48:53.001Z,77.90
2017-08-25T06:51:20.608Z,77.70
2017-08-25T06:53:48.176Z,77.10
2017-08-25T06:56:15.776Z,76.60
2017-08-25T06:58:43.354Z,76.30
2017-08-25T07:01:10.963Z,76.30
2017-08-25T07:03:38.585Z,75.70
2017-08-25T07:06:06.173Z,75.90
2017-08-25T07:08:33.739Z,75.80
2017-08-25T07:11:01.355Z,75.50
2017-08-25T07:13:28.958Z,75.30
2017-08-25T07:15:56.588Z,73.60
2017-08-25T07:18:24.226Z,73.00
2017-08-25T07:20:51.788Z,74.30
2017-08-25T07:23:19.352Z,72.70
2017-08-25T07:25:46.949Z,72.90
2017-08-25T07:28:14.504Z,73.10
2017-08-25T07:30:42.089Z,72.20
2017-08-25T07:33:09.694Z,72.00
2017-08-25T07:35:37.299Z,71.90
2017-08-25T07:38:04.879Z,72.10
2017-08-25T07:40:32.501Z,72.80
2017-08-25T07:43:00.085Z,72.40
2017-08-25T07:45:27.677Z,72.80
2017-08-25T07:47:55.305Z,73.30
2017-08-25T07:50:22.896Z,73.70
2017-08-25T07:52:50.493Z,73.30
2017-08-25T07:55:18.137Z,71.70
2017-08-25T07:57:45.731Z,71.10
2017-08-25T08:00:13.312Z,69.50
2017-08-25T08:02:41.243Z,69.30
2017-08-25T08:05:08.798Z,68.50
2017-08-25T08:07:36.374Z,68.90
2017-08-25T08:10:04.003Z,66.90
2017-08-25T08:12:31.641Z,66.90
2017-08-25T08:14:59.230Z,66.90
2017-08-25T08:17:26.848Z,65.90
2017-08-25T08:19:54.424Z,64.80
2017-08-25T08:22:21.985Z,65.20
2017-08-25T08:24:49.578Z,64.60
2017-08-25T08:27:17.202Z,64.40
2017-08-25T08:29:44.787Z,64.70
2017-08-25T08:32:12.414Z,63.70
2017-08-25T08:34:39.989Z,64.00
2017-08-25T08:37:07.578Z,63.60
2017-08-25T08:39:35.231Z,63.80
2017-08-25T08:42:02.825Z,63.30
2017-08-25T08:44:30.395Z,64.10
2017-08-25T08:46:58.034Z,60.40
2017-08-25T08:49:25.655Z,60.60
2017-08-25T08:51:53.227Z,60.00
2017-08-25T08:54:20.836Z,60.40
2017-08-25T08:56:48.427Z,59.60
2017-08-25T08:59:16.011Z,59.40
2017-08-25T09:01:43.638Z,58.80
2017-08-25T09:04:11.256Z,58.50
2017-08-25T09:06:38.819Z,58.80
2017-08-25T09:09:06.413Z,58.50
2017-08-25T09:11:34.013Z,57.70
2017-08-25T09:14:01.601Z,56.20
2017-08-25T09:16:29.206Z,56.90
2017-08-25T09:18:56.781Z,58.40
2017-08-25T09:21:24.365Z,58.10
2017-08-25T09:23:52.005Z,58.30
2017-08-25T09:26:19.579Z,57.20
2017-08-25T09:28:47.161Z,57.30
2017-08-25T09:31:14.781Z,57.70
2017-08-25T09:33:42.376Z,57.30
2017-08-25T09:36:09.955Z,57.60
2017-08-25T09:38:37.571Z,57.90
2017-08-25T09:41:05.132Z,58.60
2017-08-25T09:43:32.714Z,58.10
2017-08-25T09:46:00.326Z,58.20
2017-08-25T09:48:27.912Z,58.50
2017-08-25T09:50:55.503Z,57.10
2017-08-25T09:53:23.111Z,56.50
2017-08-25T09:55:50.688Z,57.60
2017-08-25T09:58:18.264Z,55.80
2017-08-25T10:00:45.877Z,56.00
2017-08-25T10:03:13.450Z,56.80
2017-08-25T10:05:41.018Z,55.40
2017-08-25T10:08:08.645Z,55.70
2017-08-25T10:10:36.212Z,55.40
2017-08-25T10:13:03.764Z,55.10
2017-08-25T10:15:31.375Z,55.10
2017-08-25T10:17:58.973Z,55.50
2017-08-25T10:20:26.654Z,56.00
2017-08-25T10:22:54.245Z,55.10
2017-08-25T10:25:21.825Z,54.40
2017-08-25T10:27:49.409Z,55.40
2017-08-25T10:30:17.034Z,55.00
2017-08-25T10:32:44.609Z,55.10
2017-08-25T10:35:24.077Z,53.20
2017-08-25T10:38:03.405Z,54.00
2017-08-25T10:40:42.830Z,53.30
2017-08-25T10:43:22.183Z,54.20
2017-08-25T10:45:49.817Z,52.80
2017-08-25T10:48:17.410Z,53.10
2017-08-25T10:50:44.982Z,51.50
2017-08-25T10:53:12.596Z,51.50
2017-08-25T10:55:40.192Z,52.80
2017-08-25T10:58:07.747Z,51.40
2017-08-25T11:00:35.349Z,50.80
2017-08-25T11:03:02.937Z,51.40
2017-08-25T11:05:30.517Z,51.10
2017-08-25T11:07:58.137Z,50.90
2017-08-25T11:10:25.701Z,51.20
2017-08-25T11:12:53.271Z,51.70
2017-08-25T11:15:20.858Z,49.70
2017-08-25T11:17:48.453Z,50.00
2017-08-25T11:20:16.052Z,50.60
2017-08-25T11:22:43.656Z,49.70
2017-08-25T11:25:11.219Z,50.40
2017-08-25T11:27:38.787Z,50.50
2017-08-25T11:30:06.408Z,50.60
2017-08-25T11:32:33.985Z,50.30
2017-08-25T11:35:01.541Z,52.00
2017-08-25T11:37:29.169Z,51.60
2017-08-25T11:39:56.729Z,52.10
2017-08-25T11:42:24.307Z,50.90
2017-08-25T11:44:51.911Z,51.60
2017-08-25T11:47:19.497Z,50.80
2017-08-25T11:49:47.071Z,52.20
2017-08-25T11:52:14.674Z,54.00
2017-08-25T11:54:42.257Z,53.20
2017-08-25T11:57:09.830Z,52.50
2017-08-25T11:59:37.435Z,54.60
2017-08-25T12:02:05.026Z,52.30
2017-08-25T12:04:32.595Z,54.10
2017-08-25T12:07:00.215Z,52.50
2017-08-25T12:09:27.802Z,53.60
2017-08-25T12:11:55.375Z,53.00
2017-08-25T12:14:22.998Z,50.70
2017-08-25T12:16:51.338Z,50.00
2017-08-25T12:19:18.896Z,50.00
2017-08-25T12:21:46.506Z,49.90
2017-08-25T12:24:14.098Z,49.70
2017-08-25T12:26:41.676Z,49.70
2017-08-25T12:29:09.296Z,50.20
2017-08-25T12:31:36.885Z,50.00
2017-08-25T12:34:04.879Z,51.00
2017-08-25T12:36:32.514Z,50.20
2017-08-25T12:39:00.195Z,50.30
2017-08-25T12:41:27.795Z,50.80
2017-08-25T12:43:55.417Z,50.00
2017-08-25T12:46:22.974Z,50.10
2017-08-25T12:48:50.529Z,50.60
2017-08-25T12:51:18.147Z,50.00
2017-08-25T12:53:45.723Z,49.50
2017-08-25T12:56:15.715Z,50.00
2017-08-25T12:58:43.349Z,51.10
2017-08-25T13:01:10.927Z,49.50
2017-08-25T13:03:38.525Z,49.40
2017-08-25T13:06:06.139Z,50.40
2017-08-25T13:08:33.711Z,49.70
2017-08-25T13:11:01.283Z,49.60
2017-08-25T13:13:29.511Z,49.60
2017-08-25T13:15:57.118Z,49.50
2017-08-25T13:18:24.687Z,50.20
2017-08-25T13:20:52.314Z,51.30
2017-08-25T13:23:19.886Z,50.60
2017-08-25T13:25:47.474Z,50.00
2017-08-25T13:28:15.106Z,50.20
2017-08-25T13:30:42.692Z,51.10
2017-08-25T13:33:10.280Z,48.60
2017-08-25T13:35:37.899Z,47.70
2017-08-25T13:38:05.586Z,47.50
2017-08-25T13:40:33.157Z,47.90
2017-08-25T13:43:00.782Z,49.80
2017-08-25T13:45:28.345Z,49.20
2017-08-25T13:47:55.920Z,50.00
2017-08-25T13:50:23.527Z,50.50
2017-08-25T13:52:51.089Z,49.60
2017-08-25T13:55:18.678Z,50.60
2017-08-25T13:57:46.287Z,48.10
2017-08-25T14:00:13.854Z,49.20
2017-08-25T14:02:41.439Z,49.10
2017-08-25T14:05:09.052Z,50.10
2017-08-25T14:07:36.642Z,49.70
2017-08-25T14:10:04.212Z,50.00
2017-08-25T14:12:31.827Z,49.50
2017-08-25T14:14:59.401Z,50.20
2017-08-25T14:17:26.977Z,49.10
2017-08-25T14:19:54.576Z,49.70
2017-08-25T14:22:22.154Z,49.00
2017-08-25T14:24:49.738Z,50.30
2017-08-25T14:27:17.371Z,49.40
2017-08-25T14:29:44.950Z,48.80
2017-08-25T14:32:12.542Z,49.20
2017-08-25T14:34:40.186Z,48.90
2017-08-25T14:37:07.744Z,49.70
2017-08-25T14:39:36.146Z,49.70
2017-08-25T14:42:03.783Z,48.40
2017-08-25T14:44:31.411Z,48.30
2017-08-25T14:46:58.979Z,49.20
2017-08-25T14:49:26.596Z,49.10
2017-08-25T14:51:54.186Z,49.30
2017-08-25T14:54:21.800Z,49.60
2017-08-25T14:56:49.945Z,50.00
2017-08-25T14:59:18.335Z,49.60
2017-08-25T15:01:45.917Z,49.60
2017-08-25T15:04:13.554Z,49.60
2017-08-25T15:06:41.145Z,50.00
2017-08-25T15:09:08.743Z,49.10
2017-08-25T15:11:36.359Z,49.90
2017-08-25T15:14:03.943Z,49.00
2017-08-25T15:16:31.492Z,49.20
2017-08-25T15:18:59.103Z,49.10
2017-08-25T15:21:26.675Z,50.10
2017-08-25T15:23:54.241Z,49.70
2017-08-25T15:26:21.898Z,50.30
2017-08-25T15:28:49.453Z,49.40
2017-08-25T15:31:17.015Z,50.10
2017-08-25T15:33:44.633Z,51.00
2017-08-25T15:36:12.221Z,49.80
2017-08-25T15:38:39.798Z,50.30
2017-08-25T15:41:07.413Z,50.70
2017-08-25T15:43:34.987Z,50.70
2017-08-25T15:46:02.627Z,50.50
2017-08-25T15:48:30.232Z,50.20
2017-08-25T15:50:57.925Z,50.30
2017-08-25T15:53:25.484Z,50.40
2017-08-25T15:55:53.100Z,50.70
2017-08-25T15:58:20.675Z,51.50
2017-08-25T16:00:48.258Z,51.40
2017-08-25T16:03:15.865Z,52.30
2017-08-25T16:05:43.443Z,51.80
2017-08-25T16:08:11.016Z,51.90
2017-08-25T16:10:38.646Z,52.40
2017-08-25T16:13:06.229Z,52.90
2017-08-25T16:15:33.811Z,52.20
2017-08-25T16:18:01.432Z,52.40
2017-08-25T16:20:29.010Z,52.30
2017-08-25T16:22:56.597Z,52.50
2017-08-25T16:25:24.204Z,52.50
2017-08-25T16:27:51.772Z,52.20
2017-08-25T16:30:19.341Z,52.90
2017-08-25T16:32:46.974Z,53.30
2017-08-25T16:35:14.557Z,52.20
2017-08-25T16:37:42.133Z,52.70
2017-08-25T16:40:09.735Z,52.00
2017-08-25T16:42:37.307Z,51.60
2017-08-25T16:45:04.874Z,52.10
2017-08-25T16:47:32.460Z,52.10
2017-08-25T16:50:00.030Z,52.30
2017-08-25T16:52:27.588Z,51.80
2017-08-25T16:54:55.181Z,52.20
2017-08-25T16:57:22.755Z,52.10
2017-08-25T16:59:50.332Z,52.20
2017-08-25T17:02:17.930Z,52.40
2017-08-25T17:04:45.499Z,52.60
2017-08-25T17:07:13.121Z,52.60
2017-08-25T17:09:40.750Z,52.40
2017-08-25T17:12:08.323Z,52.90
2017-08-25T17:14:35.887Z,52.70
2017-08-25T17:17:03.503Z,53.00
2017-08-25T17:19:31.076Z,53.00
2017-08-25T17:21:58.653Z,53.20
2017-08-25T17:24:26.263Z,53.30
2017-08-25T17:26:53.843Z,54.10
2017-08-25T17:29:21.414Z,53.70
2017-08-25T17:31:49.051Z,54.00
2017-08-25T17:34:16.676Z,54.20
2017-08-25T17:36:44.247Z,54.80
2017-08-25T17:39:11.855Z,55.10
2017-08-25T17:41:39.450Z,54.50
2017-08-25T17:44:07.040Z,55.10
2017-08-25T17:46:34.636Z,55.10
2017-08-25T17:49:02.211Z,55.70
2017-08-25T17:51:29.782Z,56.10
2017-08-25T17:53:57.432Z,56.00
2017-08-25T17:56:24.986Z,56.40
2017-08-25T17:58:52.552Z,56.60
2017-08-25T18:01:20.150Z,56.70
2017-08-25T18:03:47.786Z,57.00
2017-08-25T18:06:17.075Z,57.50
2017-08-25T18:08:49.571Z,57.60
2017-08-25T18:11:17.345Z,58.20
2017-08-25T18:13:44.923Z,58.70
2017-08-25T18:16:12.553Z,58.40
2017-08-25T18:18:40.354Z,58.30
2017-08-25T18:21:07.932Z,58.50
2017-08-25T18:23:35.558Z,58.90
2017-08-25T18:26:03.116Z,58.80
2017-08-25T18:28:30.700Z,59.10
2017-08-25T18:30:58.698Z,59.20
2017-08-25T18:33:26.285Z,59.30
2017-08-25T18:35:53.872Z,59.20
2017-08-25T18:38:21.493Z,59.30
2017-08-25T18:40:49.089Z,59.60
2017-08-25T18:43:16.795Z,59.30
2017-08-25T18:45:44.477Z,59.30
2017-08-25T18:48:12.069Z,59.30
2017-08-25T18:50:39.663Z,59.30
2017-08-25T18:53:07.285Z,59.10
2017-08-25T18:55:34.856Z,59.40
2017-08-25T18:58:02.419Z,59.60
2017-08-25T19:00:30.031Z,59.70
2017-08-25T19:02:57.592Z,59.70
2017-08-25T19:05:25.194Z,59.60
2017-08-25T19:07:52.817Z,59.80
2017-08-25T19:10:20.403Z,59.90
2017-08-25T19:12:47.999Z,59.80
2017-08-25T19:15:15.595Z,59.90
2017-08-25T19:17:43.183Z,60.60
2017-08-25T19:20:10.782Z,60.70
2017-08-25T19:22:38.382Z,60.60
2017-08-25T19:25:05.970Z,60.80
2017-08-25T19:27:33.526Z,61.00
2017-08-25T19:30:01.135Z,61.40
2017-08-25T19:32:28.705Z,61.00
2017-08-25T19:34:56.301Z,60.90
2017-08-25T19:37:23.906Z,60.70
2017-08-25T19:39:51.464Z,60.30
2017-08-25T19:42:20.021Z,60.60
2017-08-25T19:44:47.633Z,60.80
2017-08-25T19:47:15.203Z,60.80
2017-08-25T19:49:42.787Z,60.90
2017-08-25T19:52:10.401Z,61.20
2017-08-25T19:54:37.977Z,60.90
2017-08-25T19:57:05.541Z,61.30
2017-08-25T19:59:33.146Z,61.20
2017-08-25T20:02:00.708Z,61.00
2017-08-25T20:04:28.278Z,61.40
2017-08-25T20:06:55.884Z,61.70
2017-08-25T20:09:23.471Z,61.00
2017-08-25T20:11:51.025Z,61.00
2017-08-25T20:14:18.634Z,60.80
2017-08-25T20:16:46.221Z,60.90
2017-08-25T20:19:13.802Z,60.60
2017-08-25T20:21:41.436Z,61.40
2017-08-25T20:24:09.022Z,61.30
2017-08-25T20:26:36.707Z,60.70
2017-08-25T20:29:04.329Z,60.70
2017-08-25T20:31:31.987Z,60.70
2017-08-25T20:33:59.602Z,61.20
2017-08-25T20:36:27.212Z,61.30
2017-08-25T20:38:54.790Z,61.10
2017-08-25T20:41:22.356Z,61.40
2017-08-25T20:43:49.976Z,61.50
2017-08-25T20:46:17.578Z,61.50
2017-08-25T20:48:45.166Z,61.60
2017-08-25T20:51:12.769Z,61.70
2017-08-25T20:53:40.324Z,61.60
2017-08-25T20:56:07.937Z,61.60
2017-08-25T20:58:35.539Z,61.50
2017-08-25T21:01:03.101Z,61.60
2017-08-25T21:03:30.692Z,61.60
2017-08-25T21:05:58.317Z,61.80
2017-08-25T21:08:26.389Z,61.90
2017-08-25T21:10:53.958Z,61.60
2017-08-25T21:13:21.544Z,61.70
2017-08-25T21:15:49.130Z,61.50
2017-08-25T21:18:17.474Z,61.30
2017-08-25T21:20:45.083Z,61.30
2017-08-25T21:23:12.649Z,61.30
2017-08-25T21:25:40.224Z,61.50
2017-08-25T21:28:07.853Z,61.40
2017-08-25T21:30:35.410Z,61.50
2017-08-25T21:33:02.968Z,61.40
2017-08-25T21:35:30.553Z,61.40
2017-08-25T21:37:58.185Z,61.80
2017-08-25T21:40:25.762Z,62.10
2017-08-25T21:42:53.370Z,62.10
2017-08-25T21:45:20.920Z,61.80
2017-08-25T21:47:48.474Z,61.60
2017-08-25T21:50:16.078Z,62.00
2017-08-25T21:52:43.659Z,62.00
2017-08-25T21:55:11.266Z,61.80
2017-08-25T21:57:38.894Z,62.00
2017-08-25T22:00:06.470Z,62.20
2017-08-25T22:02:34.051Z,62.50
2017-08-25T22:05:01.659Z,62.40
2017-08-25T22:07:29.255Z,63.70
2017-08-25T22:09:56.823Z,64.70
2017-08-25T22:12:24.429Z,65.30
2017-08-25T22:14:51.996Z,65.50
2017-08-25T22:17:19.585Z,65.00
2017-08-25T22:19:47.201Z,65.30
2017-08-25T22:22:14.796Z,64.70
2017-08-25T22:24:42.354Z,65.40
2017-08-25T22:27:09.963Z,66.20
2017-08-25T22:29:38.317Z,66.00
2017-08-25T22:32:05.890Z,66.00
2017-08-25T22:34:33.521Z,66.30
2017-08-25T22:37:01.117Z,65.00
2017-08-25T22:39:28.673Z,64.50
2017-08-25T22:41:56.266Z,64.70
2017-08-25T22:44:23.839Z,64.50
2017-08-25T22:46:51.423Z,64.80
2017-08-25T22:49:19.123Z,64.80
2017-08-25T22:51:46.690Z,67.20
2017-08-25T22:54:15.027Z,69.20
2017-08-25T22:56:42.636Z,69.20
2017-08-25T22:59:10.210Z,69.10
2017-08-25T23:01:37.785Z,69.40
2017-08-25T23:04:05.384Z,69.60
2017-08-25T23:06:32.949Z,69.90
2017-08-25T23:09:00.532Z,70.40
2017-08-25T23:11:28.168Z,70.40
2017-08-25T23:13:55.749Z,69.70
2017-08-25T23:16:23.317Z,69.10
2017-08-25T23:18:50.940Z,68.50
2017-08-25T23:21:18.522Z,69.00
2017-08-25T23:23:46.094Z,69.10
2017-08-25T23:26:13.684Z,67.90
2017-08-25T23:28:41.262Z,67.70
2017-08-25T23:31:08.820Z,67.40
2017-08-25T23:33:36.422Z,67.00
2017-08-25T23:36:04.013Z,67.20
2017-08-25T23:38:31.601Z,67.10
2017-08-25T23:40:59.204Z,67.20
2017-08-25T23:43:26.776Z,67.40
2017-08-25T23:45:54.354Z,67.20
2017-08-25T23:48:21.966Z,67.00
2017-08-25T23:50:49.553Z,66.90
2017-08-25T23:53:17.101Z,66.80
2017-08-25T23:55:44.703Z,66.90
2017-08-25T23:58:12.280Z,69.40
